createdAt,value
2018-12-09T00:01:42.481Z,7.61
2018-12-09T00:04:11.099Z,7.61
2018-12-09T00:06:39.879Z,7.59
2018-12-09T00:09:08.592Z,7.60
2018-12-09T00:11:37.196Z,7.62
2018-12-09T00:14:05.780Z,7.63
2018-12-09T00:16:34.224Z,7.71
2018-12-09T00:19:02.814Z,7.74
2018-12-09T00:21:31.739Z,7.74
2018-12-09T00:24:00.332Z,7.83
2018-12-09T00:26:28.793Z,7.80
2018-12-09T00:28:57.287Z,7.82
2018-12-09T00:31:25.784Z,7.81
2018-12-09T00:33:54.266Z,7.87
2018-12-09T00:36:22.769Z,7.91
2018-12-09T00:38:51.272Z,7.95
2018-12-09T00:41:19.731Z,8.02
2018-12-09T00:43:48.235Z,8.06
2018-12-09T00:46:16.700Z,8.07
2018-12-09T00:48:45.210Z,8.12
2018-12-09T00:51:13.701Z,8.20
2018-12-09T00:53:42.234Z,8.22
2018-12-09T00:56:10.711Z,8.23
2018-12-09T00:58:39.182Z,8.21
2018-12-09T01:01:07.793Z,8.27
2018-12-09T01:03:36.296Z,8.32
2018-12-09T01:06:04.939Z,8.33
2018-12-09T01:08:33.419Z,8.33
2018-12-09T01:11:01.903Z,8.33
2018-12-09T01:13:30.391Z,8.38
2018-12-09T01:15:58.847Z,8.42
2018-12-09T01:18:27.344Z,8.46
2018-12-09T01:20:55.799Z,8.35
2018-12-09T01:23:24.316Z,8.21
2018-12-09T01:25:52.768Z,8.22
2018-12-09T01:28:21.279Z,8.18
2018-12-09T01:30:49.808Z,8.13
2018-12-09T01:33:18.271Z,8.08
2018-12-09T01:35:46.783Z,7.79
2018-12-09T01:38:15.322Z,7.67
2018-12-09T01:40:49.114Z,7.55
2018-12-09T01:43:17.916Z,7.45
2018-12-09T01:45:46.388Z,7.44
2018-12-09T01:48:15.003Z,7.43
2018-12-09T01:50:43.640Z,7.43
2018-12-09T01:53:23.720Z,7.46
2018-12-09T01:55:52.207Z,7.51
2018-12-09T01:58:20.790Z,7.57
2018-12-09T02:00:49.302Z,7.62
2018-12-09T02:03:17.758Z,7.66
2018-12-09T02:05:46.281Z,7.71
2018-12-09T02:08:14.752Z,7.77
2018-12-09T02:10:43.235Z,7.81
2018-12-09T02:13:12.123Z,7.81
2018-12-09T02:15:40.588Z,7.89
2018-12-09T02:18:09.181Z,7.94
2018-12-09T02:20:37.651Z,7.95
2018-12-09T02:23:06.111Z,7.96
2018-12-09T02:25:34.597Z,7.98
2018-12-09T02:28:03.101Z,8.03
2018-12-09T02:30:31.764Z,8.12
2018-12-09T02:33:00.282Z,8.14
2018-12-09T02:35:29.904Z,8.17
2018-12-09T02:37:58.361Z,8.22
2018-12-09T02:40:26.853Z,8.30
2018-12-09T02:42:55.316Z,8.38
2018-12-09T02:45:23.768Z,8.45
2018-12-09T02:47:52.283Z,8.44
2018-12-09T02:50:20.801Z,8.55
2018-12-09T02:52:49.256Z,8.57
2018-12-09T02:55:17.753Z,8.56
2018-12-09T02:57:46.559Z,8.66
2018-12-09T03:00:15.099Z,8.68
2018-12-09T03:02:43.606Z,8.73
2018-12-09T03:05:12.232Z,8.72
2018-12-09T03:07:40.730Z,8.74
2018-12-09T03:10:09.343Z,8.77
2018-12-09T03:12:37.816Z,8.73
2018-12-09T03:15:06.436Z,8.64
2018-12-09T03:17:34.900Z,8.64
2018-12-09T03:20:04.103Z,8.72
2018-12-09T03:22:32.616Z,8.77
2018-12-09T03:25:01.092Z,8.78
2018-12-09T03:27:29.607Z,8.79
2018-12-09T03:29:58.086Z,8.82
2018-12-09T03:32:26.668Z,8.90
2018-12-09T03:34:55.343Z,8.87
2018-12-09T03:37:23.862Z,8.83
2018-12-09T03:39:52.373Z,8.82
2018-12-09T03:42:21.273Z,8.97
2018-12-09T03:44:49.785Z,9.03
2018-12-09T03:47:18.244Z,9.04
2018-12-09T03:49:46.742Z,9.03
2018-12-09T03:52:15.232Z,9.07
2018-12-09T03:54:43.711Z,9.06
2018-12-09T03:57:12.158Z,9.05
2018-12-09T03:59:40.599Z,9.01
2018-12-09T04:02:09.116Z,8.95
2018-12-09T04:04:37.671Z,8.87
2018-12-09T04:07:06.284Z,8.85
2018-12-09T04:09:34.747Z,8.90
2018-12-09T04:12:03.267Z,8.92
2018-12-09T04:14:31.739Z,8.92
2018-12-09T04:17:00.644Z,8.88
2018-12-09T04:19:29.087Z,8.86
2018-12-09T04:21:57.552Z,8.86
2018-12-09T04:24:26.005Z,8.93
2018-12-09T04:26:54.492Z,8.92
2018-12-09T04:29:23.149Z,8.93
2018-12-09T04:31:51.634Z,9.01
2018-12-09T04:34:20.205Z,9.01
2018-12-09T04:36:48.718Z,9.00
2018-12-09T04:39:17.164Z,8.99
2018-12-09T04:41:45.617Z,8.96
2018-12-09T04:44:14.052Z,8.89
2018-12-09T04:46:42.543Z,8.74
2018-12-09T04:49:11.009Z,8.55
2018-12-09T04:51:51.088Z,8.39
2018-12-09T04:54:19.568Z,7.94
2018-12-09T04:56:48.175Z,7.59
2018-12-09T04:59:19.853Z,7.31
2018-12-09T05:01:48.448Z,7.15
2018-12-09T05:04:17.019Z,7.04
2018-12-09T05:06:48.120Z,6.99
2018-12-09T05:09:16.593Z,6.96
2018-12-09T05:11:45.199Z,6.96
2018-12-09T05:14:13.698Z,6.92
2018-12-09T05:16:42.321Z,6.90
2018-12-09T05:19:10.776Z,6.92
2018-12-09T05:21:39.250Z,6.94
2018-12-09T05:24:08.048Z,6.96
2018-12-09T05:26:36.651Z,6.97
2018-12-09T05:29:05.092Z,7.02
2018-12-09T05:31:33.612Z,7.04
2018-12-09T05:34:02.117Z,7.13
2018-12-09T05:36:30.651Z,7.13
2018-12-09T05:38:59.079Z,7.17
2018-12-09T05:41:27.662Z,7.19
2018-12-09T05:43:56.139Z,7.20
2018-12-09T05:46:24.649Z,7.23
2018-12-09T05:48:53.153Z,7.31
2018-12-09T05:51:21.638Z,7.33
2018-12-09T05:53:50.092Z,7.37
2018-12-09T05:56:18.568Z,7.41
2018-12-09T05:58:47.034Z,7.41
2018-12-09T06:01:15.510Z,7.42
2018-12-09T06:03:43.948Z,7.45
2018-12-09T06:06:12.431Z,7.46
2018-12-09T06:08:40.909Z,7.45
2018-12-09T06:11:09.392Z,7.44
2018-12-09T06:13:37.847Z,7.44
2018-12-09T06:16:06.327Z,7.45
2018-12-09T06:18:34.793Z,7.45
2018-12-09T06:21:03.328Z,7.48
2018-12-09T06:23:32.304Z,7.48
2018-12-09T06:26:00.792Z,7.50
2018-12-09T06:28:29.256Z,7.49
2018-12-09T06:30:57.760Z,7.52
2018-12-09T06:33:26.228Z,7.55
2018-12-09T06:35:54.861Z,7.53
2018-12-09T06:38:23.351Z,7.56
2018-12-09T06:40:51.836Z,7.57
2018-12-09T06:43:20.304Z,7.58
2018-12-09T06:45:48.785Z,7.54
2018-12-09T06:48:17.276Z,7.59
2018-12-09T06:50:45.715Z,7.59
2018-12-09T06:53:14.175Z,7.58
2018-12-09T06:55:42.607Z,7.57
2018-12-09T06:58:11.392Z,7.57
2018-12-09T07:00:39.861Z,7.53
2018-12-09T07:03:08.393Z,7.51
2018-12-09T07:05:36.853Z,7.53
2018-12-09T07:08:05.320Z,7.58
2018-12-09T07:10:33.788Z,7.58
2018-12-09T07:13:02.729Z,7.60
2018-12-09T07:15:31.288Z,7.58
2018-12-09T07:17:59.787Z,7.56
2018-12-09T07:20:28.233Z,7.54
2018-12-09T07:22:56.741Z,7.40
2018-12-09T07:25:25.231Z,7.18
2018-12-09T07:27:53.735Z,7.05
2018-12-09T07:30:22.195Z,6.73
2018-12-09T07:32:50.668Z,6.38
2018-12-09T07:35:19.132Z,6.26
2018-12-09T07:37:47.598Z,6.22
2018-12-09T07:40:16.059Z,6.11
2018-12-09T07:42:44.544Z,6.07
2018-12-09T07:45:13.115Z,6.04
2018-12-09T07:47:41.633Z,6.04
2018-12-09T07:50:10.091Z,6.04
2018-12-09T07:52:38.612Z,6.05
2018-12-09T07:55:07.140Z,5.99
2018-12-09T07:57:35.616Z,6.02
2018-12-09T08:00:04.330Z,6.05
2018-12-09T08:02:32.808Z,6.05
2018-12-09T08:05:01.263Z,6.08
2018-12-09T08:07:29.708Z,6.09
2018-12-09T08:09:58.162Z,6.16
2018-12-09T08:12:26.648Z,6.29
2018-12-09T08:14:55.221Z,6.43
2018-12-09T08:17:23.721Z,6.56
2018-12-09T08:19:52.181Z,6.68
2018-12-09T08:22:20.689Z,6.73
2018-12-09T08:24:49.148Z,6.81
2018-12-09T08:27:17.648Z,6.75
2018-12-09T08:29:46.089Z,6.72
2018-12-09T08:32:14.552Z,6.73
2018-12-09T08:34:43.024Z,6.65
2018-12-09T08:37:11.500Z,6.70
2018-12-09T08:39:40.051Z,6.78
2018-12-09T08:42:08.553Z,6.82
2018-12-09T08:44:37.259Z,6.76
2018-12-09T08:47:05.754Z,6.86
2018-12-09T08:49:34.312Z,6.88
2018-12-09T08:52:02.756Z,6.88
2018-12-09T08:54:31.224Z,6.89
2018-12-09T08:56:59.677Z,6.87
2018-12-09T08:59:28.153Z,6.85
2018-12-09T09:01:56.575Z,6.92
2018-12-09T09:04:25.027Z,6.89
2018-12-09T09:06:53.517Z,6.88
2018-12-09T09:09:21.983Z,6.85
2018-12-09T09:11:50.605Z,6.87
2018-12-09T09:14:19.082Z,6.94
2018-12-09T09:16:47.531Z,7.01
2018-12-09T09:19:20.572Z,7.02
2018-12-09T09:24:41.583Z,7.18
2018-12-09T09:27:10.016Z,7.23
2018-12-09T09:29:38.463Z,7.22
2018-12-09T09:32:07.099Z,7.20
2018-12-09T09:37:28.768Z,7.34
2018-12-09T09:39:57.210Z,7.33
2018-12-09T09:42:25.763Z,7.42
2018-12-09T09:44:54.223Z,7.51
2018-12-09T09:47:22.659Z,7.52
2018-12-09T09:49:51.170Z,7.47
2018-12-09T09:52:19.601Z,7.48
2018-12-09T09:54:48.084Z,7.54
2018-12-09T09:57:16.555Z,7.83
2018-12-09T09:59:45.041Z,8.09
2018-12-09T10:02:13.487Z,8.19
2018-12-09T10:04:41.955Z,8.02
2018-12-09T10:07:10.402Z,7.83
2018-12-09T10:09:38.879Z,7.65
2018-12-09T10:12:07.327Z,7.46
2018-12-09T10:14:35.812Z,7.33
2018-12-09T10:17:04.248Z,7.26
2018-12-09T10:19:32.743Z,7.26
2018-12-09T10:22:01.200Z,7.19
2018-12-09T10:24:29.705Z,7.16
2018-12-09T10:26:58.256Z,7.16
2018-12-09T10:29:26.756Z,7.15
2018-12-09T10:34:57.512Z,7.16
2018-12-09T10:37:25.954Z,7.29
2018-12-09T10:39:54.424Z,7.32
2018-12-09T10:42:22.877Z,7.26
2018-12-09T10:44:51.356Z,7.16
2018-12-09T10:47:19.839Z,7.03
2018-12-09T10:49:48.366Z,7.03
2018-12-09T10:52:16.811Z,6.93
2018-12-09T10:54:45.270Z,6.90
2018-12-09T10:57:13.736Z,6.91
2018-12-09T10:59:42.215Z,6.96
2018-12-09T11:02:15.891Z,6.95
2018-12-09T11:04:44.378Z,6.96
2018-12-09T11:07:12.816Z,7.09
2018-12-09T11:09:41.292Z,7.19
2018-12-09T11:12:09.787Z,7.20
2018-12-09T11:14:38.237Z,7.23
2018-12-09T11:17:06.688Z,7.24
2018-12-09T11:19:35.153Z,7.19
2018-12-09T11:22:03.609Z,7.19
2018-12-09T11:24:32.120Z,7.19
2018-12-09T11:27:00.568Z,7.16
2018-12-09T11:29:29.016Z,7.19
2018-12-09T11:31:57.492Z,7.22
2018-12-09T11:34:25.944Z,7.23
2018-12-09T11:36:54.395Z,7.18
2018-12-09T11:39:22.855Z,7.18
2018-12-09T11:41:51.284Z,7.17
2018-12-09T11:44:19.755Z,7.16
2018-12-09T11:46:48.200Z,7.16
2018-12-09T11:49:17.679Z,7.18
2018-12-09T11:51:46.133Z,7.22
2018-12-09T11:54:14.609Z,7.25
2018-12-09T11:56:43.067Z,7.30
2018-12-09T11:59:11.998Z,7.40
2018-12-09T12:01:40.632Z,7.46
2018-12-09T12:04:09.103Z,7.55
2018-12-09T12:06:37.582Z,7.52
2018-12-09T12:09:07.100Z,7.65
2018-12-09T12:11:35.551Z,7.74
2018-12-09T12:14:04.148Z,7.76
2018-12-09T12:16:32.595Z,7.79
2018-12-09T12:19:01.068Z,7.75
2018-12-09T12:21:29.495Z,7.74
2018-12-09T12:23:57.967Z,7.64
2018-12-09T12:26:26.648Z,7.70
2018-12-09T12:28:55.340Z,7.66
2018-12-09T12:31:23.912Z,7.65
2018-12-09T12:33:52.469Z,7.62
2018-12-09T12:36:36.952Z,7.66
2018-12-09T12:39:07.361Z,7.73
2018-12-09T12:41:35.818Z,7.81
2018-12-09T12:44:04.725Z,7.89
2018-12-09T12:46:33.300Z,8.07
2018-12-09T12:49:10.969Z,7.84
2018-12-09T12:51:39.535Z,7.57
2018-12-09T12:54:08.009Z,7.20
2018-12-09T12:56:36.449Z,6.94
2018-12-09T12:59:04.975Z,6.82
2018-12-09T13:04:29.476Z,6.76
2018-12-09T13:06:57.916Z,6.82
2018-12-09T13:09:26.508Z,6.75
2018-12-09T13:11:55.003Z,6.78
2018-12-09T13:14:23.797Z,6.65
2018-12-09T13:16:59.088Z,6.74
2018-12-09T13:19:27.677Z,6.73
2018-12-09T13:21:56.276Z,6.75
2018-12-09T13:24:24.778Z,6.78
2018-12-09T13:26:56.287Z,6.74
2018-12-09T13:29:26.953Z,6.72
2018-12-09T13:31:55.931Z,6.71
2018-12-09T13:34:24.414Z,6.71
2018-12-09T13:36:52.845Z,6.74
2018-12-09T13:42:14.329Z,6.73
2018-12-09T13:44:42.800Z,6.72
2018-12-09T13:47:11.227Z,6.76
2018-12-09T13:49:39.716Z,6.78
2018-12-09T13:52:08.172Z,6.85
2018-12-09T13:54:37.561Z,6.86
2018-12-09T13:57:06.140Z,6.87
2018-12-09T13:59:34.601Z,6.89
2018-12-09T14:02:03.071Z,6.90
2018-12-09T14:04:31.711Z,6.93
2018-12-09T14:07:00.789Z,6.92
2018-12-09T14:09:29.368Z,6.88
2018-12-09T14:11:58.041Z,6.85
2018-12-09T14:14:26.483Z,6.80
2018-12-09T14:16:56.669Z,6.76
2018-12-09T14:19:34.925Z,6.71
2018-12-09T14:22:03.982Z,6.70
2018-12-09T14:24:32.673Z,6.66
2018-12-09T14:27:01.283Z,6.69
2018-12-09T14:29:29.720Z,6.64
2018-12-09T14:31:58.742Z,6.62
2018-12-09T14:34:27.175Z,6.60
2018-12-09T14:36:56.486Z,6.69
2018-12-09T14:39:25.013Z,6.62
2018-12-09T14:41:53.464Z,6.63
2018-12-09T14:44:21.919Z,6.61
2018-12-09T14:46:50.386Z,6.58
2018-12-09T14:49:18.825Z,6.52
2018-12-09T14:51:47.276Z,6.54
2018-12-09T14:54:15.706Z,6.52
2018-12-09T14:56:44.156Z,6.53
2018-12-09T14:59:12.609Z,6.53
2018-12-09T15:01:41.069Z,6.54
2018-12-09T15:04:09.502Z,6.55
2018-12-09T15:06:37.983Z,6.54
2018-12-09T15:09:07.228Z,6.57
2018-12-09T15:11:35.724Z,6.58
2018-12-09T15:14:04.184Z,6.55
2018-12-09T15:16:32.639Z,6.55
2018-12-09T15:19:01.087Z,6.50
2018-12-09T15:21:29.691Z,6.52
2018-12-09T15:23:58.131Z,6.48
2018-12-09T15:26:26.639Z,6.43
2018-12-09T15:28:55.060Z,6.39
2018-12-09T15:31:23.519Z,6.41
2018-12-09T15:33:51.957Z,6.47
2018-12-09T15:36:20.539Z,6.47
2018-12-09T15:38:48.972Z,6.47
2018-12-09T15:41:17.440Z,6.48
2018-12-09T15:43:45.890Z,6.48
2018-12-09T15:46:14.345Z,6.49
2018-12-09T15:48:42.780Z,6.51
2018-12-09T15:51:11.649Z,6.50
2018-12-09T15:53:40.125Z,6.54
2018-12-09T15:56:08.648Z,6.54
2018-12-09T15:58:37.099Z,6.58
2018-12-09T16:01:05.792Z,6.59
2018-12-09T16:03:34.297Z,6.58
2018-12-09T16:06:02.772Z,6.61
2018-12-09T16:08:31.272Z,6.60
2018-12-09T16:10:59.755Z,6.61
2018-12-09T16:13:28.235Z,6.64
2018-12-09T16:15:56.984Z,6.64
2018-12-09T16:18:25.483Z,6.64
2018-12-09T16:20:54.258Z,6.63
2018-12-09T16:23:22.769Z,6.55
2018-12-09T16:25:51.233Z,6.53
2018-12-09T16:28:19.701Z,6.46
2018-12-09T16:30:48.166Z,6.45
2018-12-09T16:33:17.314Z,6.42
2018-12-09T16:35:47.582Z,6.39
2018-12-09T16:38:16.232Z,6.34
2018-12-09T16:40:44.724Z,6.31
2018-12-09T16:43:13.142Z,6.32
2018-12-09T16:45:41.765Z,6.37
2018-12-09T16:48:10.201Z,6.33
2018-12-09T16:50:38.677Z,6.33
2018-12-09T16:53:07.280Z,6.31
2018-12-09T16:55:35.868Z,6.33
2018-12-09T16:58:04.647Z,6.32
2018-12-09T17:00:33.128Z,6.31
2018-12-09T17:03:01.845Z,6.30
2018-12-09T17:05:30.279Z,6.30
2018-12-09T17:07:58.722Z,6.35
2018-12-09T17:10:27.172Z,6.35
2018-12-09T17:12:55.619Z,6.33
2018-12-09T17:15:24.052Z,6.28
2018-12-09T17:17:52.530Z,6.28
2018-12-09T17:20:20.988Z,6.28
2018-12-09T17:22:49.431Z,6.27
2018-12-09T17:25:17.861Z,6.19
2018-12-09T17:27:46.408Z,6.15
2018-12-09T17:30:14.854Z,6.09
2018-12-09T17:32:43.451Z,6.07
2018-12-09T17:35:11.895Z,6.08
2018-12-09T17:37:40.501Z,6.07
2018-12-09T17:40:09.292Z,6.08
2018-12-09T17:42:37.764Z,6.04
2018-12-09T17:45:06.467Z,6.05
2018-12-09T17:47:34.993Z,6.06
2018-12-09T17:50:03.577Z,6.02
2018-12-09T17:52:32.060Z,6.06
2018-12-09T17:55:00.512Z,6.00
2018-12-09T17:57:28.980Z,5.98
2018-12-09T17:59:57.431Z,6.00
2018-12-09T18:02:25.922Z,5.98
2018-12-09T18:04:54.368Z,5.96
2018-12-09T18:07:22.860Z,5.95
2018-12-09T18:09:51.300Z,5.95
2018-12-09T18:12:19.786Z,5.96
2018-12-09T18:14:48.236Z,5.98
2018-12-09T18:17:16.734Z,5.96
2018-12-09T18:19:45.266Z,6.04
2018-12-09T18:22:13.736Z,6.10
2018-12-09T18:24:42.311Z,6.01
2018-12-09T18:27:10.800Z,5.99
2018-12-09T18:29:39.370Z,5.99
2018-12-09T18:32:07.963Z,6.03
2018-12-09T18:34:36.501Z,5.96
2018-12-09T18:37:04.963Z,5.97
2018-12-09T18:39:33.416Z,6.01
2018-12-09T18:42:01.903Z,6.04
2018-12-09T18:44:30.343Z,6.06
2018-12-09T18:46:58.819Z,6.08
2018-12-09T18:49:28.279Z,6.13
2018-12-09T18:51:57.039Z,6.16
2018-12-09T18:54:25.459Z,6.16
2018-12-09T18:56:53.940Z,6.13
2018-12-09T18:59:22.624Z,6.22
2018-12-09T19:01:51.071Z,6.26
2018-12-09T19:04:19.511Z,6.25
2018-12-09T19:06:48.097Z,6.25
2018-12-09T19:09:16.553Z,6.30
2018-12-09T19:11:45.087Z,6.33
2018-12-09T19:14:13.584Z,6.29
2018-12-09T19:16:42.052Z,6.28
2018-12-09T19:19:10.484Z,6.35
2018-12-09T19:21:38.896Z,6.36
2018-12-09T19:24:07.360Z,6.44
2018-12-09T19:26:35.791Z,6.41
2018-12-09T19:29:04.419Z,6.38
2018-12-09T19:31:32.866Z,6.38
2018-12-09T19:34:01.346Z,6.35
2018-12-09T19:36:29.799Z,6.32
2018-12-09T19:38:58.268Z,6.33
2018-12-09T19:41:26.710Z,6.38
2018-12-09T19:43:55.159Z,6.41
2018-12-09T19:46:23.583Z,6.39
2018-12-09T19:48:52.065Z,6.37
2018-12-09T19:51:20.503Z,6.46
2018-12-09T19:53:48.962Z,6.47
2018-12-09T19:56:17.384Z,6.45
2018-12-09T19:58:45.843Z,6.52
2018-12-09T20:01:14.287Z,6.57
2018-12-09T20:03:42.747Z,6.57
2018-12-09T20:06:11.311Z,6.60
2018-12-09T20:08:39.778Z,6.62
2018-12-09T20:11:08.209Z,6.61
2018-12-09T20:13:36.665Z,6.65
2018-12-09T20:16:05.212Z,6.69
2018-12-09T20:18:33.697Z,6.75
2018-12-09T20:21:02.132Z,6.77
2018-12-09T20:23:30.988Z,6.73
2018-12-09T20:25:59.430Z,6.74
2018-12-09T20:28:27.917Z,6.85
2018-12-09T20:30:56.359Z,6.79
2018-12-09T20:33:26.073Z,6.72
2018-12-09T20:35:54.811Z,6.67
2018-12-09T20:38:23.278Z,6.61
2018-12-09T20:40:51.755Z,6.61
2018-12-09T20:43:20.242Z,6.56
2018-12-09T20:45:48.695Z,6.47
2018-12-09T20:48:18.175Z,6.34
2018-12-09T20:50:46.627Z,6.24
2018-12-09T20:53:15.113Z,6.19
2018-12-09T20:55:43.553Z,6.22
2018-12-09T20:58:12.020Z,6.16
2018-12-09T21:00:40.579Z,6.24
2018-12-09T21:03:09.136Z,6.24
2018-12-09T21:05:37.588Z,6.17
2018-12-09T21:08:06.052Z,6.21
2018-12-09T21:10:34.511Z,6.14
2018-12-09T21:13:03.010Z,6.14
2018-12-09T21:15:31.593Z,6.16
2018-12-09T21:18:00.173Z,6.14
2018-12-09T21:20:28.653Z,6.28
2018-12-09T21:22:57.150Z,6.32
2018-12-09T21:25:25.591Z,6.35
2018-12-09T21:27:54.088Z,6.27
2018-12-09T21:30:22.612Z,6.18
2018-12-09T21:32:51.096Z,6.20
2018-12-09T21:35:19.603Z,6.22
2018-12-09T21:37:48.056Z,6.14
2018-12-09T21:40:16.613Z,6.15
2018-12-09T21:42:45.097Z,6.17
2018-12-09T21:45:13.713Z,6.19
2018-12-09T21:47:42.171Z,6.20
2018-12-09T21:50:10.743Z,6.22
2018-12-09T21:52:39.204Z,6.16
2018-12-09T21:55:07.828Z,6.16
2018-12-09T21:57:36.285Z,6.28
2018-12-09T22:00:05.103Z,6.27
2018-12-09T22:02:33.609Z,6.26
2018-12-09T22:05:02.096Z,6.19
2018-12-09T22:07:30.541Z,6.12
2018-12-09T22:09:59.014Z,6.11
2018-12-09T22:12:27.483Z,6.10
2018-12-09T22:14:56.092Z,6.16
2018-12-09T22:17:24.538Z,6.12
2018-12-09T22:19:53.303Z,6.08
2018-12-09T22:22:21.748Z,6.17
2018-12-09T22:24:50.238Z,6.07
2018-12-09T22:27:18.667Z,6.11
2018-12-09T22:29:47.132Z,6.18
2018-12-09T22:32:15.548Z,6.26
2018-12-09T22:34:44.055Z,6.22
2018-12-09T22:37:12.611Z,6.17
2018-12-09T22:39:41.684Z,6.23
2018-12-09T22:42:10.229Z,6.21
2018-12-09T22:44:38.791Z,6.25
2018-12-09T22:47:07.282Z,6.14
2018-12-09T22:49:35.750Z,6.17
2018-12-09T22:52:04.241Z,6.13
2018-12-09T22:54:33.706Z,6.09
2018-12-09T22:57:02.423Z,6.03
2018-12-09T22:59:30.979Z,6.00
2018-12-09T23:02:06.435Z,5.95
2018-12-09T23:04:35.099Z,6.06
2018-12-09T23:07:08.985Z,6.14
2018-12-09T23:09:44.504Z,6.19
2018-12-09T23:12:13.016Z,6.24
2018-12-09T23:14:41.489Z,6.19
2018-12-09T23:17:10.049Z,6.19
2018-12-09T23:19:38.506Z,6.09
2018-12-09T23:22:06.935Z,6.08
2018-12-09T23:24:35.417Z,5.95
2018-12-09T23:27:03.875Z,5.98
2018-12-09T23:29:32.335Z,6.00
2018-12-09T23:32:00.781Z,6.02
2018-12-09T23:34:29.245Z,6.07
2018-12-09T23:36:57.887Z,6.10
2018-12-09T23:39:26.332Z,6.09
2018-12-09T23:41:54.783Z,6.10
2018-12-09T23:44:23.243Z,6.19
2018-12-09T23:46:51.677Z,6.13
2018-12-09T23:49:20.156Z,6.03
2018-12-09T23:51:48.921Z,6.08
2018-12-09T23:54:17.402Z,5.93
2018-12-09T23:56:45.859Z,5.95
2018-12-09T23:59:14.307Z,5.95
